sensor_id;sensor_type;location;lat;lon;timestamp;pressure;altitude;pressure_sealevel;temperature;humidity
45991;BME280;31721;41.740;-88.000;2023-04-06T00:02:09;98903.16;;;6.40;48.66
45991;BME280;31721;41.740;-88.000;2023-04-06T00:04:37;98905.93;;;6.49;48.52
45991;BME280;31721;41.740;-88.000;2023-04-06T00:07:06;98920.94;;;6.91;48.14
45991;BME280;31721;41.740;-88.000;2023-04-06T00:09:34;98926.37;;;6.90;47.57
45991;BME280;31721;41.740;-88.000;2023-04-06T00:12:02;98936.70;;;6.74;47.83
45991;BME280;31721;41.740;-88.000;2023-04-06T00:14:31;98942.78;;;6.60;48.44
45991;BME280;31721;41.740;-88.000;2023-04-06T00:16:59;98942.41;;;6.85;46.88
45991;BME280;31721;41.740;-88.000;2023-04-06T00:19:27;98944.93;;;6.58;47.45
45991;BME280;31721;41.740;-88.000;2023-04-06T00:21:55;98954.87;;;6.42;47.92
45991;BME280;31721;41.740;-88.000;2023-04-06T00:24:23;98965.46;;;6.23;48.03
45991;BME280;31721;41.740;-88.000;2023-04-06T00:26:51;98964.41;;;6.33;47.79
45991;BME280;31721;41.740;-88.000;2023-04-06T00:29:19;98967.92;;;6.16;47.89
45991;BME280;31721;41.740;-88.000;2023-04-06T00:31:47;98976.81;;;6.00;48.55
45991;BME280;31721;41.740;-88.000;2023-04-06T00:34:15;98977.74;;;5.71;48.08
45991;BME280;31721;41.740;-88.000;2023-04-06T00:36:43;98987.25;;;5.77;48.21
45991;BME280;31721;41.740;-88.000;2023-04-06T00:39:11;98982.04;;;5.75;47.82
45991;BME280;31721;41.740;-88.000;2023-04-06T00:41:39;98991.76;;;5.98;47.48
45991;BME280;31721;41.740;-88.000;2023-04-06T00:44:11;98994.61;;;5.36;48.38
45991;BME280;31721;41.740;-88.000;2023-04-06T00:46:39;98999.74;;;5.16;48.83
45991;BME280;31721;41.740;-88.000;2023-04-06T00:49:08;99001.21;;;5.32;48.50
45991;BME280;31721;41.740;-88.000;2023-04-06T00:51:36;99012.46;;;5.18;48.64
45991;BME280;31721;41.740;-88.000;2023-04-06T00:54:04;99019.27;;;5.01;48.86
45991;BME280;31721;41.740;-88.000;2023-04-06T00:56:32;99017.20;;;5.37;48.30
45991;BME280;31721;41.740;-88.000;2023-04-06T00:59:01;99013.06;;;5.10;48.33
45991;BME280;31721;41.740;-88.000;2023-04-06T01:01:29;99023.04;;;5.09;48.37
45991;BME280;31721;41.740;-88.000;2023-04-06T01:03:58;99029.76;;;5.32;48.30
45991;BME280;31721;41.740;-88.000;2023-04-06T01:06:25;99028.76;;;5.26;48.03
45991;BME280;31721;41.740;-88.000;2023-04-06T01:08:54;99035.66;;;4.80;48.73
45991;BME280;31721;41.740;-88.000;2023-04-06T01:11:22;99040.59;;;4.66;48.60
45991;BME280;31721;41.740;-88.000;2023-04-06T01:13:50;99049.78;;;5.10;48.30
45991;BME280;31721;41.740;-88.000;2023-04-06T01:16:18;99050.43;;;5.05;48.40
45991;BME280;31721;41.740;-88.000;2023-04-06T01:18:46;99067.27;;;5.25;47.88
45991;BME280;31721;41.740;-88.000;2023-04-06T01:21:14;99074.86;;;4.86;48.35
45991;BME280;31721;41.740;-88.000;2023-04-06T01:23:44;99087.27;;;5.02;47.95
45991;BME280;31721;41.740;-88.000;2023-04-06T01:26:13;99091.30;;;5.22;47.63
45991;BME280;31721;41.740;-88.000;2023-04-06T01:28:41;99098.80;;;5.27;47.48
45991;BME280;31721;41.740;-88.000;2023-04-06T01:31:10;99103.96;;;4.97;47.83
45991;BME280;31721;41.740;-88.000;2023-04-06T01:33:39;99100.24;;;5.12;47.53
45991;BME280;31721;41.740;-88.000;2023-04-06T01:36:07;99110.85;;;5.00;47.73
45991;BME280;31721;41.740;-88.000;2023-04-06T01:38:35;99129.10;;;4.94;47.78
45991;BME280;31721;41.740;-88.000;2023-04-06T01:41:03;99145.32;;;4.93;47.94
45991;BME280;31721;41.740;-88.000;2023-04-06T01:43:32;99150.56;;;4.66;48.20
45991;BME280;31721;41.740;-88.000;2023-04-06T01:46:00;99151.88;;;4.88;47.94
45991;BME280;31721;41.740;-88.000;2023-04-06T01:48:28;99164.40;;;4.57;48.26
45991;BME280;31721;41.740;-88.000;2023-04-06T01:50:57;99168.81;;;4.79;48.06
45991;BME280;31721;41.740;-88.000;2023-04-06T01:53:26;99179.34;;;4.73;48.38
45991;BME280;31721;41.740;-88.000;2023-04-06T01:55:53;99185.18;;;4.83;48.43
45991;BME280;31721;41.740;-88.000;2023-04-06T01:58:22;99192.04;;;4.45;48.78
45991;BME280;31721;41.740;-88.000;2023-04-06T02:00:50;99195.79;;;4.78;48.71
45991;BME280;31721;41.740;-88.000;2023-04-06T02:03:18;99195.75;;;4.72;48.90
45991;BME280;31721;41.740;-88.000;2023-04-06T02:05:47;99195.97;;;4.57;48.89
45991;BME280;31721;41.740;-88.000;2023-04-06T02:08:15;99195.59;;;4.82;48.68
45991;BME280;31721;41.740;-88.000;2023-04-06T02:10:44;99207.03;;;4.69;49.20
45991;BME280;31721;41.740;-88.000;2023-04-06T02:13:11;99200.36;;;4.46;49.46
45991;BME280;31721;41.740;-88.000;2023-04-06T02:15:39;99206.74;;;4.51;49.40
45991;BME280;31721;41.740;-88.000;2023-04-06T02:18:08;99221.85;;;4.46;49.45
45991;BME280;31721;41.740;-88.000;2023-04-06T02:20:36;99230.25;;;4.44;49.74
45991;BME280;31721;41.740;-88.000;2023-04-06T02:23:04;99236.64;;;4.28;49.95
45991;BME280;31721;41.740;-88.000;2023-04-06T02:25:33;99241.78;;;4.25;49.81
45991;BME280;31721;41.740;-88.000;2023-04-06T02:28:02;99252.85;;;4.32;49.95
45991;BME280;31721;41.740;-88.000;2023-04-06T02:30:30;99263.54;;;4.55;49.74
45991;BME280;31721;41.740;-88.000;2023-04-06T02:32:58;99267.53;;;4.49;49.80
45991;BME280;31721;41.740;-88.000;2023-04-06T02:35:28;99281.13;;;4.43;49.85
45991;BME280;31721;41.740;-88.000;2023-04-06T02:37:57;99284.44;;;4.33;50.03
45991;BME280;31721;41.740;-88.000;2023-04-06T02:40:25;99281.61;;;4.51;50.00
45991;BME280;31721;41.740;-88.000;2023-04-06T02:42:53;99277.24;;;4.41;49.95
45991;BME280;31721;41.740;-88.000;2023-04-06T02:45:21;99290.09;;;4.59;49.99
45991;BME280;31721;41.740;-88.000;2023-04-06T02:47:49;99287.08;;;4.43;50.24
45991;BME280;31721;41.740;-88.000;2023-04-06T02:50:17;99299.17;;;4.51;50.22
45991;BME280;31721;41.740;-88.000;2023-04-06T02:52:46;99306.56;;;4.52;50.14
45991;BME280;31721;41.740;-88.000;2023-04-06T02:55:14;99306.61;;;4.37;50.04
45991;BME280;31721;41.740;-88.000;2023-04-06T02:57:42;99309.01;;;4.29;50.14
45991;BME280;31721;41.740;-88.000;2023-04-06T03:00:11;99310.30;;;4.46;49.96
45991;BME280;31721;41.740;-88.000;2023-04-06T03:02:40;99316.01;;;4.31;50.29
45991;BME280;31721;41.740;-88.000;2023-04-06T03:05:08;99322.34;;;4.14;50.46
45991;BME280;31721;41.740;-88.000;2023-04-06T03:07:36;99325.05;;;4.38;50.11
45991;BME280;31721;41.740;-88.000;2023-04-06T03:10:05;99337.10;;;4.34;50.00
45991;BME280;31721;41.740;-88.000;2023-04-06T03:12:33;99341.38;;;4.02;50.49
45991;BME280;31721;41.740;-88.000;2023-04-06T03:15:01;99344.96;;;4.06;50.25
45991;BME280;31721;41.740;-88.000;2023-04-06T03:20:10;99358.99;;;4.21;50.05
45991;BME280;31721;41.740;-88.000;2023-04-06T03:22:37;99365.35;;;4.25;49.67
45991;BME280;31721;41.740;-88.000;2023-04-06T03:25:06;99368.53;;;4.29;49.45
45991;BME280;31721;41.740;-88.000;2023-04-06T03:27:34;99372.72;;;4.09;49.96
45991;BME280;31721;41.740;-88.000;2023-04-06T03:30:03;99382.53;;;4.07;49.71
45991;BME280;31721;41.740;-88.000;2023-04-06T03:32:31;99389.79;;;4.08;49.98
45991;BME280;31721;41.740;-88.000;2023-04-06T03:34:59;99398.93;;;4.10;49.96
45991;BME280;31721;41.740;-88.000;2023-04-06T03:37:28;99401.48;;;4.29;49.62
45991;BME280;31721;41.740;-88.000;2023-04-06T03:39:56;99404.10;;;4.12;50.01
45991;BME280;31721;41.740;-88.000;2023-04-06T03:42:23;99403.39;;;4.35;49.40
45991;BME280;31721;41.740;-88.000;2023-04-06T03:44:52;99411.01;;;4.32;49.47
45991;BME280;31721;41.740;-88.000;2023-04-06T03:47:20;99419.47;;;4.22;49.61
45991;BME280;31721;41.740;-88.000;2023-04-06T03:49:48;99421.35;;;4.46;48.80
45991;BME280;31721;41.740;-88.000;2023-04-06T03:52:17;99427.75;;;4.38;49.06
45991;BME280;31721;41.740;-88.000;2023-04-06T03:54:45;99437.86;;;4.30;49.13
45991;BME280;31721;41.740;-88.000;2023-04-06T03:57:13;99441.50;;;4.13;48.75
45991;BME280;31721;41.740;-88.000;2023-04-06T03:59:41;99451.89;;;4.12;49.30
45991;BME280;31721;41.740;-88.000;2023-04-06T04:02:09;99455.73;;;4.12;49.17
45991;BME280;31721;41.740;-88.000;2023-04-06T04:04:37;99461.46;;;4.12;49.05
45991;BME280;31721;41.740;-88.000;2023-04-06T04:07:05;99466.88;;;4.42;48.38
45991;BME280;31721;41.740;-88.000;2023-04-06T04:09:34;99474.76;;;4.32;48.37
45991;BME280;31721;41.740;-88.000;2023-04-06T04:12:02;99473.55;;;4.25;48.28
45991;BME280;31721;41.740;-88.000;2023-04-06T04:14:30;99478.88;;;4.30;48.10
45991;BME280;31721;41.740;-88.000;2023-04-06T04:16:58;99485.72;;;4.24;48.02
45991;BME280;31721;41.740;-88.000;2023-04-06T04:19:26;99492.10;;;4.13;48.16
45991;BME280;31721;41.740;-88.000;2023-04-06T04:21:54;99495.11;;;4.26;47.98
45991;BME280;31721;41.740;-88.000;2023-04-06T04:24:22;99499.22;;;4.06;48.28
45991;BME280;31721;41.740;-88.000;2023-04-06T04:26:50;99499.20;;;4.13;48.20
45991;BME280;31721;41.740;-88.000;2023-04-06T04:29:18;99497.78;;;4.07;48.14
45991;BME280;31721;41.740;-88.000;2023-04-06T04:31:47;99497.42;;;4.03;48.06
45991;BME280;31721;41.740;-88.000;2023-04-06T04:34:15;99498.34;;;3.98;48.16
45991;BME280;31721;41.740;-88.000;2023-04-06T04:36:44;99497.86;;;3.89;48.14
45991;BME280;31721;41.740;-88.000;2023-04-06T04:39:12;99497.56;;;4.11;48.02
45991;BME280;31721;41.740;-88.000;2023-04-06T04:41:40;99506.86;;;3.91;48.28
45991;BME280;31721;41.740;-88.000;2023-04-06T04:44:09;99510.90;;;3.70;48.60
45991;BME280;31721;41.740;-88.000;2023-04-06T04:46:36;99510.26;;;3.81;48.32
45991;BME280;31721;41.740;-88.000;2023-04-06T04:49:04;99508.73;;;3.84;48.38
45991;BME280;31721;41.740;-88.000;2023-04-06T04:51:32;99506.31;;;3.71;48.64
45991;BME280;31721;41.740;-88.000;2023-04-06T04:54:00;99505.89;;;3.56;48.72
45991;BME280;31721;41.740;-88.000;2023-04-06T04:56:27;99504.72;;;3.93;47.87
45991;BME280;31721;41.740;-88.000;2023-04-06T04:58:55;99513.12;;;3.74;48.29
45991;BME280;31721;41.740;-88.000;2023-04-06T05:01:23;99515.16;;;3.70;48.44
45991;BME280;31721;41.740;-88.000;2023-04-06T05:03:52;99517.18;;;3.77;48.17
45991;BME280;31721;41.740;-88.000;2023-04-06T05:06:20;99513.71;;;3.80;48.10
45991;BME280;31721;41.740;-88.000;2023-04-06T05:08:48;99519.07;;;3.61;48.34
45991;BME280;31721;41.740;-88.000;2023-04-06T05:11:16;99518.10;;;3.33;48.75
45991;BME280;31721;41.740;-88.000;2023-04-06T05:13:44;99516.96;;;3.46;49.07
45991;BME280;31721;41.740;-88.000;2023-04-06T05:16:12;99514.89;;;3.54;48.65
45991;BME280;31721;41.740;-88.000;2023-04-06T05:18:40;99522.60;;;3.65;48.63
45991;BME280;31721;41.740;-88.000;2023-04-06T05:21:09;99525.42;;;3.53;49.03
45991;BME280;31721;41.740;-88.000;2023-04-06T05:23:37;99527.24;;;3.40;48.94
45991;BME280;31721;41.740;-88.000;2023-04-06T05:26:05;99526.58;;;3.49;48.92
45991;BME280;31721;41.740;-88.000;2023-04-06T05:28:33;99524.94;;;3.55;48.98
45991;BME280;31721;41.740;-88.000;2023-04-06T05:31:01;99527.30;;;3.44;49.09
45991;BME280;31721;41.740;-88.000;2023-04-06T05:33:29;99536.16;;;3.46;49.03
45991;BME280;31721;41.740;-88.000;2023-04-06T05:35:57;99535.95;;;3.39;48.92
45991;BME280;31721;41.740;-88.000;2023-04-06T05:38:26;99537.49;;;3.34;49.31
45991;BME280;31721;41.740;-88.000;2023-04-06T05:40:53;99533.48;;;3.36;49.18
45991;BME280;31721;41.740;-88.000;2023-04-06T05:43:21;99538.98;;;3.34;49.34
45991;BME280;31721;41.740;-88.000;2023-04-06T05:45:48;99536.44;;;3.25;49.49
45991;BME280;31721;41.740;-88.000;2023-04-06T05:48:15;99539.52;;;3.34;49.18
45991;BME280;31721;41.740;-88.000;2023-04-06T05:50:46;99549.35;;;3.13;49.68
45991;BME280;31721;41.740;-88.000;2023-04-06T05:53:14;99552.04;;;3.36;49.59
45991;BME280;31721;41.740;-88.000;2023-04-06T05:55:42;99554.24;;;3.23;50.00
45991;BME280;31721;41.740;-88.000;2023-04-06T05:58:10;99557.83;;;3.21;49.81
45991;BME280;31721;41.740;-88.000;2023-04-06T06:00:37;99562.61;;;3.29;50.17
45991;BME280;31721;41.740;-88.000;2023-04-06T06:03:06;99570.55;;;3.20;50.10
45991;BME280;31721;41.740;-88.000;2023-04-06T06:05:33;99574.50;;;3.20;50.26
45991;BME280;31721;41.740;-88.000;2023-04-06T06:08:02;99574.78;;;3.35;49.97
45991;BME280;31721;41.740;-88.000;2023-04-06T06:10:30;99568.55;;;3.49;49.90
45991;BME280;31721;41.740;-88.000;2023-04-06T06:12:58;99558.26;;;3.23;49.91
45991;BME280;31721;41.740;-88.000;2023-04-06T06:15:25;99552.20;;;3.21;49.95
45991;BME280;31721;41.740;-88.000;2023-04-06T06:17:53;99547.97;;;2.98;49.99
45991;BME280;31721;41.740;-88.000;2023-04-06T06:20:20;99545.98;;;3.15;49.95
45991;BME280;31721;41.740;-88.000;2023-04-06T06:22:48;99556.64;;;3.09;49.90
45991;BME280;31721;41.740;-88.000;2023-04-06T06:25:15;99549.69;;;3.24;50.06
45991;BME280;31721;41.740;-88.000;2023-04-06T06:27:44;99542.45;;;3.12;50.29
45991;BME280;31721;41.740;-88.000;2023-04-06T06:30:12;99544.39;;;2.99;50.27
45991;BME280;31721;41.740;-88.000;2023-04-06T06:32:40;99538.58;;;3.14;50.12
45991;BME280;31721;41.740;-88.000;2023-04-06T06:35:09;99532.72;;;3.09;50.23
45991;BME280;31721;41.740;-88.000;2023-04-06T06:37:37;99527.84;;;3.00;50.07
45991;BME280;31721;41.740;-88.000;2023-04-06T06:40:06;99520.69;;;2.71;50.39
45991;BME280;31721;41.740;-88.000;2023-04-06T06:42:35;99523.65;;;2.76;50.46
45991;BME280;31721;41.740;-88.000;2023-04-06T06:45:03;99519.47;;;2.84;50.77
45991;BME280;31721;41.740;-88.000;2023-04-06T06:47:32;99520.86;;;2.84;50.60
45991;BME280;31721;41.740;-88.000;2023-04-06T06:49:59;99517.06;;;3.09;50.62
45991;BME280;31721;41.740;-88.000;2023-04-06T06:52:28;99518.77;;;3.08;50.28
45991;BME280;31721;41.740;-88.000;2023-04-06T06:54:55;99518.82;;;3.14;50.30
45991;BME280;31721;41.740;-88.000;2023-04-06T06:57:23;99517.39;;;2.97;50.32
45991;BME280;31721;41.740;-88.000;2023-04-06T06:59:52;99522.09;;;2.88;50.26
45991;BME280;31721;41.740;-88.000;2023-04-06T07:02:20;99520.20;;;2.88;50.17
45991;BME280;31721;41.740;-88.000;2023-04-06T07:04:48;99513.26;;;2.75;50.28
45991;BME280;31721;41.740;-88.000;2023-04-06T07:07:16;99510.91;;;2.64;50.13
45991;BME280;31721;41.740;-88.000;2023-04-06T07:09:43;99512.30;;;2.72;49.90
45991;BME280;31721;41.740;-88.000;2023-04-06T07:12:11;99506.55;;;2.59;50.21
45991;BME280;31721;41.740;-88.000;2023-04-06T07:14:38;99511.33;;;2.55;50.05
45991;BME280;31721;41.740;-88.000;2023-04-06T07:17:06;99502.00;;;2.32;50.32
45991;BME280;31721;41.740;-88.000;2023-04-06T07:19:34;99505.24;;;2.45;50.50
45991;BME280;31721;41.740;-88.000;2023-04-06T07:22:01;99496.31;;;2.27;49.66
45991;BME280;31721;41.740;-88.000;2023-04-06T07:24:29;99497.26;;;2.18;50.34
45991;BME280;31721;41.740;-88.000;2023-04-06T07:26:58;99495.30;;;2.16;50.66
45991;BME280;31721;41.740;-88.000;2023-04-06T07:29:26;99497.41;;;2.35;50.56
45991;BME280;31721;41.740;-88.000;2023-04-06T07:31:54;99494.52;;;2.18;50.90
45991;BME280;31721;41.740;-88.000;2023-04-06T07:34:23;99491.15;;;2.01;50.25
45991;BME280;31721;41.740;-88.000;2023-04-06T07:36:50;99490.80;;;2.16;50.28
45991;BME280;31721;41.740;-88.000;2023-04-06T07:39:18;99488.41;;;2.05;50.08
45991;BME280;31721;41.740;-88.000;2023-04-06T07:41:47;99478.23;;;1.96;50.36
45991;BME280;31721;41.740;-88.000;2023-04-06T07:44:14;99475.53;;;1.99;51.01
45991;BME280;31721;41.740;-88.000;2023-04-06T07:46:42;99479.72;;;1.39;49.40
45991;BME280;31721;41.740;-88.000;2023-04-06T07:49:09;99489.58;;;1.94;51.02
45991;BME280;31721;41.740;-88.000;2023-04-06T07:51:38;99486.39;;;2.30;50.32
45991;BME280;31721;41.740;-88.000;2023-04-06T07:54:06;99489.94;;;1.52;49.73
45991;BME280;31721;41.740;-88.000;2023-04-06T07:56:35;99490.63;;;1.85;49.81
45991;BME280;31721;41.740;-88.000;2023-04-06T07:59:02;99491.56;;;1.54;50.61
45991;BME280;31721;41.740;-88.000;2023-04-06T08:01:30;99495.50;;;1.61;50.62
45991;BME280;31721;41.740;-88.000;2023-04-06T08:03:58;99493.42;;;1.39;50.24
45991;BME280;31721;41.740;-88.000;2023-04-06T08:06:26;99496.81;;;1.37;50.49
45991;BME280;31721;41.740;-88.000;2023-04-06T08:08:54;99510.70;;;1.37;49.31
45991;BME280;31721;41.740;-88.000;2023-04-06T08:11:21;99517.91;;;1.52;49.47
45991;BME280;31721;41.740;-88.000;2023-04-06T08:13:49;99510.42;;;1.50;50.42
45991;BME280;31721;41.740;-88.000;2023-04-06T08:16:16;99514.79;;;1.51;50.15
45991;BME280;31721;41.740;-88.000;2023-04-06T08:18:44;99512.40;;;1.46;49.35
45991;BME280;31721;41.740;-88.000;2023-04-06T08:21:12;99520.24;;;1.25;49.23
45991;BME280;31721;41.740;-88.000;2023-04-06T08:23:44;99528.33;;;1.33;49.33
45991;BME280;31721;41.740;-88.000;2023-04-06T08:26:12;99544.83;;;1.21;49.48
45991;BME280;31721;41.740;-88.000;2023-04-06T08:28:40;99558.81;;;1.50;49.54
45991;BME280;31721;41.740;-88.000;2023-04-06T08:31:08;99561.83;;;0.91;49.11
45991;BME280;31721;41.740;-88.000;2023-04-06T08:33:35;99555.56;;;0.91;48.92
45991;BME280;31721;41.740;-88.000;2023-04-06T08:36:10;99558.06;;;1.27;49.29
45991;BME280;31721;41.740;-88.000;2023-04-06T08:38:39;99550.81;;;1.29;48.75
45991;BME280;31721;41.740;-88.000;2023-04-06T08:41:09;99551.41;;;0.72;48.57
45991;BME280;31721;41.740;-88.000;2023-04-06T08:43:42;99553.13;;;0.47;49.43
45991;BME280;31721;41.740;-88.000;2023-04-06T08:46:11;99561.02;;;0.90;49.02
45991;BME280;31721;41.740;-88.000;2023-04-06T08:48:40;99564.76;;;0.77;49.13
45991;BME280;31721;41.740;-88.000;2023-04-06T08:51:08;99557.20;;;0.74;48.59
45991;BME280;31721;41.740;-88.000;2023-04-06T08:53:37;99559.24;;;0.87;49.32
45991;BME280;31721;41.740;-88.000;2023-04-06T08:56:07;99564.50;;;0.68;48.76
45991;BME280;31721;41.740;-88.000;2023-04-06T08:58:38;99575.05;;;0.62;49.16
45991;BME280;31721;41.740;-88.000;2023-04-06T09:01:09;99575.25;;;0.82;48.99
45991;BME280;31721;41.740;-88.000;2023-04-06T09:03:40;99595.98;;;1.16;49.43
45991;BME280;31721;41.740;-88.000;2023-04-06T09:06:09;99604.85;;;0.69;48.48
45991;BME280;31721;41.740;-88.000;2023-04-06T09:08:38;99615.76;;;1.20;49.16
45991;BME280;31721;41.740;-88.000;2023-04-06T09:11:07;99604.69;;;1.09;49.28
45991;BME280;31721;41.740;-88.000;2023-04-06T09:13:45;99603.12;;;0.89;49.26
45991;BME280;31721;41.740;-88.000;2023-04-06T09:16:14;99607.87;;;0.57;49.25
45991;BME280;31721;41.740;-88.000;2023-04-06T09:18:42;99622.18;;;0.95;49.15
45991;BME280;31721;41.740;-88.000;2023-04-06T09:21:11;99625.77;;;0.88;49.40
45991;BME280;31721;41.740;-88.000;2023-04-06T09:23:39;99625.00;;;0.99;49.59
45991;BME280;31721;41.740;-88.000;2023-04-06T09:26:09;99633.56;;;1.02;49.17
45991;BME280;31721;41.740;-88.000;2023-04-06T09:28:46;99633.11;;;0.92;49.52
45991;BME280;31721;41.740;-88.000;2023-04-06T09:31:16;99641.01;;;1.10;49.65
45991;BME280;31721;41.740;-88.000;2023-04-06T09:33:44;99641.64;;;1.12;49.56
45991;BME280;31721;41.740;-88.000;2023-04-06T09:36:14;99642.99;;;1.30;49.45
45991;BME280;31721;41.740;-88.000;2023-04-06T09:38:53;99646.73;;;1.48;49.37
45991;BME280;31721;41.740;-88.000;2023-04-06T09:41:23;99646.31;;;1.14;49.43
45991;BME280;31721;41.740;-88.000;2023-04-06T09:43:52;99657.03;;;1.26;49.30
45991;BME280;31721;41.740;-88.000;2023-04-06T09:46:31;99652.38;;;1.37;49.25
45991;BME280;31721;41.740;-88.000;2023-04-06T09:49:00;99649.25;;;1.26;49.12
45991;BME280;31721;41.740;-88.000;2023-04-06T09:51:34;99652.04;;;1.22;49.29
45991;BME280;31721;41.740;-88.000;2023-04-06T09:54:04;99656.55;;;1.38;49.14
45991;BME280;31721;41.740;-88.000;2023-04-06T09:56:39;99667.59;;;0.89;49.37
45991;BME280;31721;41.740;-88.000;2023-04-06T09:59:14;99674.36;;;1.28;49.12
45991;BME280;31721;41.740;-88.000;2023-04-06T10:01:46;99680.98;;;1.35;48.94
45991;BME280;31721;41.740;-88.000;2023-04-06T10:04:24;99688.62;;;1.32;48.93
45991;BME280;31721;41.740;-88.000;2023-04-06T10:06:59;99697.22;;;0.94;48.86
45991;BME280;31721;41.740;-88.000;2023-04-06T10:09:30;99701.28;;;0.86;48.82
45991;BME280;31721;41.740;-88.000;2023-04-06T10:11:58;99702.03;;;0.96;48.99
45991;BME280;31721;41.740;-88.000;2023-04-06T10:14:26;99710.22;;;0.91;49.37
45991;BME280;31721;41.740;-88.000;2023-04-06T10:16:55;99713.71;;;0.53;48.55
45991;BME280;31721;41.740;-88.000;2023-04-06T10:19:27;99725.26;;;0.59;48.60
45991;BME280;31721;41.740;-88.000;2023-04-06T10:21:58;99725.03;;;0.52;49.23
45991;BME280;31721;41.740;-88.000;2023-04-06T10:24:27;99729.00;;;0.35;49.30
45991;BME280;31721;41.740;-88.000;2023-04-06T10:26:58;99732.41;;;0.59;49.46
45991;BME280;31721;41.740;-88.000;2023-04-06T10:29:27;99738.72;;;0.64;49.42
45991;BME280;31721;41.740;-88.000;2023-04-06T10:31:55;99747.29;;;0.95;49.33
45991;BME280;31721;41.740;-88.000;2023-04-06T10:34:22;99756.66;;;1.08;48.93
45991;BME280;31721;41.740;-88.000;2023-04-06T10:36:50;99754.69;;;1.08;49.01
45991;BME280;31721;41.740;-88.000;2023-04-06T10:39:24;99765.84;;;1.16;48.49
45991;BME280;31721;41.740;-88.000;2023-04-06T10:41:53;99777.88;;;1.15;48.62
45991;BME280;31721;41.740;-88.000;2023-04-06T10:44:22;99790.28;;;1.09;48.41
45991;BME280;31721;41.740;-88.000;2023-04-06T10:46:55;99796.24;;;1.14;48.11
45991;BME280;31721;41.740;-88.000;2023-04-06T10:49:25;99804.69;;;1.06;48.22
45991;BME280;31721;41.740;-88.000;2023-04-06T10:51:54;99811.71;;;1.38;47.79
45991;BME280;31721;41.740;-88.000;2023-04-06T10:54:25;99816.16;;;1.36;47.74
45991;BME280;31721;41.740;-88.000;2023-04-06T10:56:54;99821.20;;;1.26;47.75
45991;BME280;31721;41.740;-88.000;2023-04-06T10:59:23;99825.84;;;1.03;47.92
45991;BME280;31721;41.740;-88.000;2023-04-06T11:01:50;99834.09;;;1.19;47.82
45991;BME280;31721;41.740;-88.000;2023-04-06T11:04:20;99839.25;;;1.28;47.62
45991;BME280;31721;41.740;-88.000;2023-04-06T11:06:48;99836.63;;;0.98;47.68
45991;BME280;31721;41.740;-88.000;2023-04-06T11:09:25;99827.80;;;0.67;47.76
45991;BME280;31721;41.740;-88.000;2023-04-06T11:11:53;99829.34;;;0.76;47.97
45991;BME280;31721;41.740;-88.000;2023-04-06T11:14:21;99828.86;;;0.78;47.93
45991;BME280;31721;41.740;-88.000;2023-04-06T11:16:49;99835.74;;;0.83;48.08
45991;BME280;31721;41.740;-88.000;2023-04-06T11:19:17;99842.94;;;0.64;48.12
45991;BME280;31721;41.740;-88.000;2023-04-06T11:21:46;99842.47;;;0.84;48.26
45991;BME280;31721;41.740;-88.000;2023-04-06T11:24:16;99843.78;;;0.94;48.06
45991;BME280;31721;41.740;-88.000;2023-04-06T11:26:47;99847.32;;;0.98;47.86
45991;BME280;31721;41.740;-88.000;2023-04-06T11:29:16;99845.14;;;0.89;48.07
45991;BME280;31721;41.740;-88.000;2023-04-06T11:31:47;99851.68;;;0.97;47.93
45991;BME280;31721;41.740;-88.000;2023-04-06T11:34:18;99854.88;;;0.99;47.57
45991;BME280;31721;41.740;-88.000;2023-04-06T11:36:48;99852.75;;;0.68;48.04
45991;BME280;31721;41.740;-88.000;2023-04-06T11:39:20;99861.43;;;0.90;48.02
45991;BME280;31721;41.740;-88.000;2023-04-06T11:41:50;99865.44;;;0.82;48.09
45991;BME280;31721;41.740;-88.000;2023-04-06T11:44:33;99870.74;;;1.07;48.02
45991;BME280;31721;41.740;-88.000;2023-04-06T11:47:01;99880.27;;;1.32;47.14
45991;BME280;31721;41.740;-88.000;2023-04-06T11:49:30;99882.79;;;1.41;47.01
45991;BME280;31721;41.740;-88.000;2023-04-06T11:52:00;99893.94;;;1.12;47.08
45991;BME280;31721;41.740;-88.000;2023-04-06T11:54:31;99904.31;;;0.98;47.19
45991;BME280;31721;41.740;-88.000;2023-04-06T11:56:59;99910.31;;;1.20;46.93
45991;BME280;31721;41.740;-88.000;2023-04-06T11:59:27;99914.40;;;1.27;46.59
45991;BME280;31721;41.740;-88.000;2023-04-06T12:01:56;99922.06;;;1.21;46.72
45991;BME280;31721;41.740;-88.000;2023-04-06T12:04:24;99930.22;;;1.29;46.60
45991;BME280;31721;41.740;-88.000;2023-04-06T12:06:53;99942.66;;;1.17;46.74
45991;BME280;31721;41.740;-88.000;2023-04-06T12:09:21;99950.20;;;1.33;46.54
45991;BME280;31721;41.740;-88.000;2023-04-06T12:11:50;99955.43;;;1.23;46.54
45991;BME280;31721;41.740;-88.000;2023-04-06T12:14:18;99957.23;;;1.00;46.72
45991;BME280;31721;41.740;-88.000;2023-04-06T12:16:45;99964.51;;;0.99;46.80
45991;BME280;31721;41.740;-88.000;2023-04-06T12:19:14;99968.95;;;0.91;46.78
45991;BME280;31721;41.740;-88.000;2023-04-06T12:21:41;99972.68;;;1.22;46.61
45991;BME280;31721;41.740;-88.000;2023-04-06T12:24:09;99979.02;;;1.32;46.44
45991;BME280;31721;41.740;-88.000;2023-04-06T12:26:37;99990.46;;;1.31;46.70
45991;BME280;31721;41.740;-88.000;2023-04-06T12:29:05;99993.06;;;1.43;46.35
45991;BME280;31721;41.740;-88.000;2023-04-06T12:31:35;99995.19;;;1.24;46.62
45991;BME280;31721;41.740;-88.000;2023-04-06T12:34:04;99997.78;;;1.37;46.24
45991;BME280;31721;41.740;-88.000;2023-04-06T12:36:32;99997.67;;;1.23;46.68
45991;BME280;31721;41.740;-88.000;2023-04-06T12:39:00;100002.80;;;1.44;46.34
45991;BME280;31721;41.740;-88.000;2023-04-06T12:41:29;100004.54;;;1.53;46.08
45991;BME280;31721;41.740;-88.000;2023-04-06T12:43:58;100003.81;;;1.33;46.31
45991;BME280;31721;41.740;-88.000;2023-04-06T12:46:26;100007.37;;;1.30;46.21
45991;BME280;31721;41.740;-88.000;2023-04-06T12:48:55;99999.99;;;1.28;46.28
45991;BME280;31721;41.740;-88.000;2023-04-06T12:51:22;100002.53;;;1.68;46.27
45991;BME280;31721;41.740;-88.000;2023-04-06T12:53:50;100014.57;;;1.48;46.71
45991;BME280;31721;41.740;-88.000;2023-04-06T12:56:18;100017.68;;;1.70;45.93
45991;BME280;31721;41.740;-88.000;2023-04-06T12:58:47;100019.10;;;2.12;45.32
45991;BME280;31721;41.740;-88.000;2023-04-06T13:01:15;100032.80;;;1.78;45.94